createdAt,value
2018-08-13T00:00:20.448Z,38.69
2018-08-13T00:01:24.651Z,39.12
2018-08-13T00:02:28.779Z,38.56
2018-08-13T00:03:33.061Z,38.94
2018-08-13T00:04:37.254Z,38.83
2018-08-13T00:05:41.422Z,38.69
2018-08-13T00:06:45.583Z,38.49
2018-08-13T00:07:49.843Z,38.54
2018-08-13T00:08:53.998Z,39.02
2018-08-13T00:10:02.294Z,39.23
2018-08-13T00:11:06.459Z,39.16
2018-08-13T00:12:12.010Z,39.06
2018-08-13T00:13:16.190Z,38.54
2018-08-13T00:14:20.342Z,39.16
2018-08-13T00:15:24.949Z,39.31
2018-08-13T00:16:29.064Z,38.72
2018-08-13T00:17:33.292Z,38.66
2018-08-13T00:18:37.565Z,39.44
2018-08-13T00:19:41.709Z,39.39
2018-08-13T00:20:45.872Z,38.99
2018-08-13T00:21:50.051Z,39.33
2018-08-13T00:22:54.219Z,39.51
2018-08-13T00:23:58.395Z,39.56
2018-08-13T00:25:02.796Z,39.33
2018-08-13T00:26:07.206Z,39.03
2018-08-13T00:27:11.353Z,39.61
2018-08-13T00:28:15.566Z,38.97
2018-08-13T00:29:19.777Z,39.54
2018-08-13T00:30:25.359Z,39.29
2018-08-13T00:31:29.462Z,39.19
2018-08-13T00:32:33.665Z,39.47
2018-08-13T00:33:37.858Z,39.72
2018-08-13T00:34:42.006Z,39.95
2018-08-13T00:35:46.178Z,39.80
2018-08-13T00:36:50.327Z,39.34
2018-08-13T00:37:54.494Z,39.97
2018-08-13T00:38:58.670Z,39.96
2018-08-13T00:40:02.866Z,39.78
2018-08-13T00:41:07.043Z,39.92
2018-08-13T00:42:11.212Z,39.42
2018-08-13T00:43:15.412Z,39.59
2018-08-13T00:44:19.823Z,39.54
2018-08-13T00:45:23.986Z,39.73
2018-08-13T00:46:28.174Z,39.50
2018-08-13T00:47:32.349Z,40.04
2018-08-13T00:48:36.499Z,39.72
2018-08-13T00:49:40.794Z,40.20
2018-08-13T00:50:44.917Z,39.49
2018-08-13T00:51:49.077Z,39.43
2018-08-13T00:52:53.232Z,39.54
2018-08-13T00:53:58.486Z,39.55
2018-08-13T00:55:02.704Z,40.12
2018-08-13T00:56:06.822Z,40.05
2018-08-13T00:57:11.612Z,39.99
2018-08-13T00:58:15.791Z,39.74
2018-08-13T00:59:19.939Z,39.48
2018-08-13T01:00:24.153Z,40.30
2018-08-13T01:01:28.297Z,39.77
2018-08-13T01:02:32.445Z,40.38
2018-08-13T01:03:36.683Z,39.99
2018-08-13T01:04:40.839Z,39.88
2018-08-13T01:05:45.049Z,39.69
2018-08-13T01:06:49.357Z,39.88
2018-08-13T01:07:53.665Z,40.11
2018-08-13T01:08:57.846Z,40.61
2018-08-13T01:10:02.019Z,40.35
2018-08-13T01:11:06.293Z,39.98
2018-08-13T01:12:10.442Z,40.42
2018-08-13T01:13:14.794Z,39.96
2018-08-13T01:14:18.990Z,39.96
2018-08-13T01:15:23.165Z,40.66
2018-08-13T01:16:27.571Z,40.40
2018-08-13T01:17:31.737Z,40.71
2018-08-13T01:18:35.939Z,40.31
2018-08-13T01:19:40.098Z,40.59
2018-08-13T01:20:44.293Z,40.22
2018-08-13T01:21:48.640Z,40.14
2018-08-13T01:22:52.809Z,40.20
2018-08-13T01:23:57.014Z,40.49
2018-08-13T01:25:01.198Z,40.23
2018-08-13T01:26:05.717Z,40.33
2018-08-13T01:27:14.303Z,40.77
2018-08-13T01:28:18.488Z,40.63
2018-08-13T01:29:22.889Z,41.12
2018-08-13T01:30:27.102Z,41.12
2018-08-13T01:31:31.314Z,41.11
2018-08-13T01:32:35.607Z,41.10
2018-08-13T01:33:39.770Z,40.91
2018-08-13T01:34:43.922Z,40.76
2018-08-13T01:35:48.123Z,41.00
2018-08-13T01:36:52.325Z,40.94
2018-08-13T01:37:56.522Z,40.69
2018-08-13T01:39:00.722Z,40.64
2018-08-13T01:40:07.089Z,41.15
2018-08-13T01:41:11.222Z,41.17
2018-08-13T01:42:15.402Z,40.71
2018-08-13T01:43:19.708Z,40.50
2018-08-13T01:44:23.858Z,40.60
2018-08-13T01:45:28.117Z,41.11
2018-08-13T01:46:32.279Z,40.97
2018-08-13T01:47:36.586Z,40.70
2018-08-13T01:48:40.810Z,40.94
2018-08-13T01:49:45.199Z,41.15
2018-08-13T01:50:49.575Z,40.59
2018-08-13T01:51:53.783Z,41.09
2018-08-13T01:52:57.998Z,40.80
2018-08-13T01:54:02.372Z,41.36
2018-08-13T01:55:08.085Z,40.72
2018-08-13T01:56:12.278Z,40.71
2018-08-13T01:57:16.461Z,41.36
2018-08-13T01:58:20.659Z,41.17
2018-08-13T01:59:24.906Z,40.92
2018-08-13T02:00:29.073Z,41.21
2018-08-13T02:01:33.346Z,40.70
2018-08-13T02:02:37.462Z,40.80
2018-08-13T02:03:41.639Z,40.63
2018-08-13T02:04:45.986Z,40.83
2018-08-13T02:05:50.210Z,40.84
2018-08-13T02:06:54.383Z,41.43
2018-08-13T02:07:58.591Z,41.42
2018-08-13T02:09:02.984Z,40.72
2018-08-13T02:10:08.898Z,41.27
2018-08-13T02:11:13.092Z,41.19
2018-08-13T02:12:17.443Z,40.96
2018-08-13T02:13:21.647Z,41.24
2018-08-13T02:14:25.911Z,41.07
2018-08-13T02:15:30.172Z,40.85
2018-08-13T02:16:34.725Z,41.05
2018-08-13T02:17:38.907Z,40.44
2018-08-13T02:18:43.079Z,41.20
2018-08-13T02:19:47.227Z,41.15
2018-08-13T02:20:51.538Z,41.08
2018-08-13T02:21:56.111Z,40.99
2018-08-13T02:23:00.262Z,41.05
2018-08-13T02:24:04.623Z,40.14
2018-08-13T02:25:09.206Z,40.81
2018-08-13T02:26:13.453Z,40.73
2018-08-13T02:27:17.749Z,40.89
2018-08-13T02:28:21.920Z,40.37
2018-08-13T02:29:26.807Z,40.64
2018-08-13T02:30:31.259Z,40.93
2018-08-13T02:31:35.430Z,40.25
2018-08-13T02:32:39.871Z,40.26
2018-08-13T02:33:44.311Z,40.74
2018-08-13T02:34:48.481Z,41.02
2018-08-13T02:35:52.642Z,41.06
2018-08-13T02:36:56.910Z,41.07
2018-08-13T02:38:01.055Z,41.08
2018-08-13T02:39:07.441Z,40.99
2018-08-13T02:40:11.547Z,40.69
2018-08-13T02:41:15.863Z,40.61
2018-08-13T02:42:20.205Z,40.64
2018-08-13T02:43:24.319Z,40.88
2018-08-13T02:44:28.512Z,40.28
2018-08-13T02:45:32.660Z,40.19
2018-08-13T02:46:36.866Z,40.66
2018-08-13T02:47:41.058Z,40.91
2018-08-13T02:48:45.234Z,40.17
2018-08-13T02:49:49.435Z,40.71
2018-08-13T02:50:53.590Z,40.55
2018-08-13T02:51:57.787Z,40.63
2018-08-13T02:53:02.111Z,40.97
2018-08-13T02:54:06.990Z,40.24
2018-08-13T02:55:11.852Z,41.07
2018-08-13T02:56:16.032Z,40.69
2018-08-13T02:57:20.284Z,41.15
2018-08-13T02:58:24.494Z,41.09
2018-08-13T02:59:28.633Z,40.54
2018-08-13T03:00:32.784Z,41.18
2018-08-13T03:01:37.339Z,41.22
2018-08-13T03:02:41.655Z,40.92
2018-08-13T03:03:45.834Z,40.67
2018-08-13T03:04:50.106Z,40.95
2018-08-13T03:05:54.153Z,40.88
2018-08-13T03:06:58.326Z,40.78
2018-08-13T03:08:02.487Z,40.62
2018-08-13T03:09:09.351Z,40.84
2018-08-13T03:10:14.007Z,41.03
2018-08-13T03:11:18.249Z,40.70
2018-08-13T03:12:22.378Z,40.46
2018-08-13T03:13:26.534Z,40.90
2018-08-13T03:14:30.737Z,40.79
2018-08-13T03:15:34.974Z,41.03
2018-08-13T03:16:39.544Z,41.14
2018-08-13T03:17:43.745Z,40.51
2018-08-13T03:18:47.919Z,41.17
2018-08-13T03:19:52.103Z,41.50
2018-08-13T03:20:56.250Z,40.82
2018-08-13T03:22:00.470Z,40.60
2018-08-13T03:23:04.642Z,40.85
2018-08-13T03:24:08.871Z,41.27
2018-08-13T03:25:13.125Z,40.95
2018-08-13T03:26:17.333Z,41.09
2018-08-13T03:27:21.538Z,41.06
2018-08-13T03:28:25.972Z,41.77
2018-08-13T03:29:30.348Z,41.03
2018-08-13T03:30:34.506Z,41.47
2018-08-13T03:31:38.683Z,41.20
2018-08-13T03:32:42.983Z,41.66
2018-08-13T03:33:47.061Z,41.50
2018-08-13T03:34:51.202Z,41.51
2018-08-13T03:35:55.426Z,41.89
2018-08-13T03:36:59.622Z,41.88
2018-08-13T03:38:03.794Z,42.05
2018-08-13T03:39:10.553Z,41.69
2018-08-13T03:40:14.681Z,42.23
2018-08-13T03:41:18.890Z,42.05
2018-08-13T03:42:23.047Z,42.22
2018-08-13T03:43:27.271Z,42.60
2018-08-13T03:44:31.402Z,42.73
2018-08-13T03:45:35.545Z,42.79
2018-08-13T03:46:39.880Z,42.66
2018-08-13T03:47:44.093Z,42.41
2018-08-13T03:48:48.233Z,42.98
2018-08-13T03:49:52.399Z,43.17
2018-08-13T03:50:56.561Z,43.38
2018-08-13T03:52:00.722Z,43.02
2018-08-13T03:53:05.340Z,43.24
2018-08-13T03:54:09.527Z,43.05
2018-08-13T03:55:13.670Z,42.90
2018-08-13T03:56:17.855Z,42.61
2018-08-13T03:57:22.591Z,42.82
2018-08-13T03:58:26.746Z,43.35
2018-08-13T03:59:30.913Z,42.67
2018-08-13T04:00:35.078Z,43.40
2018-08-13T04:01:39.826Z,43.13
2018-08-13T04:02:44.177Z,43.77
2018-08-13T04:03:48.334Z,43.27
2018-08-13T04:04:52.479Z,44.14
2018-08-13T04:05:56.678Z,44.80
2018-08-13T04:07:00.879Z,45.09
2018-08-13T04:08:05.405Z,45.73
2018-08-13T04:09:09.994Z,46.20
2018-08-13T04:10:14.449Z,46.15
2018-08-13T04:11:18.595Z,46.45
2018-08-13T04:12:22.750Z,47.27
2018-08-13T04:13:26.930Z,48.08
2018-08-13T04:14:31.074Z,48.36
2018-08-13T04:15:35.225Z,49.19
2018-08-13T04:16:39.840Z,49.43
2018-08-13T04:17:44.961Z,49.40
2018-08-13T04:18:49.615Z,49.94
2018-08-13T04:19:53.933Z,50.02
2018-08-13T04:20:58.066Z,50.47
2018-08-13T04:22:02.815Z,51.34
2018-08-13T04:23:07.061Z,51.22
2018-08-13T04:24:11.202Z,51.68
2018-08-13T04:25:15.344Z,51.78
2018-08-13T04:26:19.515Z,52.66
2018-08-13T04:27:23.790Z,53.47
2018-08-13T04:28:27.959Z,53.71
2018-08-13T04:29:32.119Z,54.16
2018-08-13T04:30:36.291Z,53.82
2018-08-13T04:31:40.498Z,54.37
2018-08-13T04:32:45.629Z,54.95
2018-08-13T04:33:49.735Z,55.40
2018-08-13T04:34:53.931Z,55.59
2018-08-13T04:35:58.076Z,56.04
2018-08-13T04:37:02.259Z,56.35
2018-08-13T04:38:06.447Z,55.37
2018-08-13T04:39:13.518Z,56.14
2018-08-13T04:40:18.644Z,56.12
2018-08-13T04:41:22.981Z,56.32
2018-08-13T04:42:27.164Z,56.21
2018-08-13T04:43:31.312Z,55.89
2018-08-13T04:44:35.433Z,55.76
2018-08-13T04:45:39.618Z,55.68
2018-08-13T04:46:44.171Z,56.29
2018-08-13T04:47:50.455Z,55.09
2018-08-13T04:48:54.606Z,55.73
2018-08-13T04:49:58.771Z,55.49
2018-08-13T04:51:02.951Z,56.30
2018-08-13T04:52:07.258Z,56.63
2018-08-13T04:53:17.913Z,56.48
2018-08-13T04:54:22.251Z,56.48
2018-08-13T04:55:26.551Z,57.01
2018-08-13T04:56:31.054Z,56.81
2018-08-13T04:57:35.378Z,56.47
2018-08-13T04:58:39.559Z,56.87
2018-08-13T04:59:43.806Z,56.24
2018-08-13T05:00:48.023Z,56.99
2018-08-13T05:01:52.190Z,56.93
2018-08-13T05:02:56.357Z,58.01
2018-08-13T05:04:00.580Z,57.46
2018-08-13T05:05:06.178Z,57.72
2018-08-13T05:06:10.325Z,58.64
2018-08-13T05:07:14.595Z,58.35
2018-08-13T05:08:18.769Z,58.53
2018-08-13T05:09:22.911Z,59.06
2018-08-13T05:10:27.095Z,59.10
2018-08-13T05:11:31.346Z,58.99
2018-08-13T05:12:35.502Z,58.77
2018-08-13T05:13:39.665Z,58.94
2018-08-13T05:14:43.802Z,59.39
2018-08-13T05:15:47.966Z,59.17
2018-08-13T05:16:52.388Z,59.51
2018-08-13T05:17:56.678Z,59.87
2018-08-13T05:19:01.022Z,59.42
2018-08-13T05:20:05.806Z,59.78
2018-08-13T05:21:09.994Z,59.55
2018-08-13T05:22:14.216Z,59.84
2018-08-13T05:23:18.528Z,59.96
2018-08-13T05:24:22.670Z,60.10
2018-08-13T05:25:26.852Z,59.33
2018-08-13T05:26:31.054Z,60.25
2018-08-13T05:27:35.454Z,60.26
2018-08-13T05:28:39.651Z,60.11
2018-08-13T05:29:43.826Z,59.81
2018-08-13T05:30:47.972Z,60.06
2018-08-13T05:31:52.164Z,60.82
2018-08-13T05:32:56.371Z,60.39
2018-08-13T05:34:00.577Z,60.47
2018-08-13T05:35:05.509Z,60.95
2018-08-13T05:36:09.734Z,60.87
2018-08-13T05:37:13.909Z,60.79
2018-08-13T05:38:18.358Z,60.70
2018-08-13T05:39:22.447Z,60.54
2018-08-13T05:40:26.662Z,60.35
2018-08-13T05:41:30.849Z,60.67
2018-08-13T05:42:35.050Z,61.20
2018-08-13T05:43:39.383Z,60.88
2018-08-13T05:44:43.710Z,60.73
2018-08-13T05:45:47.961Z,61.16
2018-08-13T05:46:52.098Z,60.93
2018-08-13T05:47:56.289Z,61.36
2018-08-13T05:49:00.677Z,61.60
2018-08-13T05:50:06.427Z,61.15
2018-08-13T05:51:10.618Z,62.13
2018-08-13T05:52:14.786Z,62.27
2018-08-13T05:53:19.136Z,62.51
2018-08-13T05:54:23.314Z,62.40
2018-08-13T05:55:27.678Z,63.03
2018-08-13T05:56:32.019Z,62.67
2018-08-13T05:57:36.224Z,63.23
2018-08-13T05:58:40.447Z,63.35
2018-08-13T05:59:44.654Z,63.83
2018-08-13T06:00:48.858Z,63.47
2018-08-13T06:01:53.054Z,64.19
2018-08-13T06:02:57.529Z,64.18
2018-08-13T06:04:01.676Z,64.31
2018-08-13T06:05:05.911Z,64.52
2018-08-13T06:06:10.109Z,65.03
2018-08-13T06:07:14.305Z,64.39
2018-08-13T06:08:18.622Z,64.83
2018-08-13T06:09:22.806Z,65.06
2018-08-13T06:10:26.966Z,65.59
2018-08-13T06:12:41.855Z,65.76
2018-08-13T06:13:46.202Z,66.28
2018-08-13T06:14:50.382Z,66.12
2018-08-13T06:15:54.612Z,66.45
2018-08-13T06:16:59.124Z,66.65
2018-08-13T06:18:03.413Z,67.20
2018-08-13T06:19:07.682Z,66.88
2018-08-13T06:20:12.880Z,66.99
2018-08-13T06:21:17.038Z,66.89
2018-08-13T06:22:21.387Z,67.28
2018-08-13T06:23:25.531Z,66.79
2018-08-13T06:24:29.698Z,66.61
2018-08-13T06:25:33.935Z,66.73
2018-08-13T06:26:38.266Z,66.92
2018-08-13T06:27:43.513Z,66.34
2018-08-13T06:28:48.315Z,65.85
2018-08-13T06:29:52.595Z,66.12
2018-08-13T06:30:56.760Z,65.68
2018-08-13T06:32:01.262Z,65.92
2018-08-13T06:33:05.837Z,65.79
2018-08-13T06:34:10.011Z,66.04
2018-08-13T06:35:14.666Z,65.90
2018-08-13T06:36:18.952Z,65.43
2018-08-13T06:37:23.096Z,65.65
2018-08-13T06:38:27.425Z,65.36
2018-08-13T06:39:31.737Z,65.63
2018-08-13T06:40:35.898Z,66.04
2018-08-13T06:41:40.082Z,65.84
2018-08-13T06:42:44.450Z,65.81
2018-08-13T06:43:48.630Z,65.83
2018-08-13T06:44:52.798Z,65.39
2018-08-13T06:45:56.982Z,65.73
2018-08-13T06:47:01.173Z,65.72
2018-08-13T06:48:05.680Z,65.75
2018-08-13T06:49:09.887Z,65.61
2018-08-13T06:50:14.729Z,65.86
2018-08-13T06:51:19.123Z,66.36
2018-08-13T06:52:23.268Z,65.78
2018-08-13T06:53:27.434Z,65.87
2018-08-13T06:54:31.655Z,65.93
2018-08-13T06:55:35.806Z,65.97
2018-08-13T06:56:39.960Z,65.54
2018-08-13T06:57:44.101Z,66.01
2018-08-13T06:58:48.259Z,65.75
2018-08-13T06:59:52.430Z,66.18
2018-08-13T07:00:56.594Z,65.94
2018-08-13T07:02:00.788Z,65.36
2018-08-13T07:03:07.059Z,65.36
2018-08-13T07:04:11.407Z,65.57
2018-08-13T07:05:17.996Z,65.97
2018-08-13T07:06:22.420Z,65.46
2018-08-13T07:07:26.563Z,65.92
2018-08-13T07:08:30.775Z,65.49
2018-08-13T07:09:34.934Z,65.97
2018-08-13T07:10:39.162Z,65.46
2018-08-13T07:11:43.420Z,65.05
2018-08-13T07:12:47.786Z,65.42
2018-08-13T07:13:51.973Z,65.23
2018-08-13T07:14:56.126Z,65.42
2018-08-13T07:16:00.311Z,65.69
2018-08-13T07:17:04.611Z,65.61
2018-08-13T07:18:08.786Z,65.28
2018-08-13T07:19:12.970Z,65.58
2018-08-13T07:20:17.946Z,65.12
2018-08-13T07:21:22.115Z,65.20
2018-08-13T07:22:26.324Z,65.57
2018-08-13T07:23:30.440Z,65.25
2018-08-13T07:24:34.782Z,65.61
2018-08-13T07:25:39.132Z,65.75
2018-08-13T07:26:43.417Z,65.35
2018-08-13T07:27:47.732Z,65.28
2018-08-13T07:28:51.837Z,65.36
2018-08-13T07:29:55.966Z,65.43
2018-08-13T07:31:00.103Z,64.86
2018-08-13T07:32:04.337Z,65.58
2018-08-13T07:33:08.544Z,65.83
2018-08-13T07:34:13.020Z,65.17
2018-08-13T07:35:17.163Z,65.58
2018-08-13T07:36:21.365Z,65.23
2018-08-13T07:37:25.530Z,65.38
2018-08-13T07:38:29.781Z,65.10
2018-08-13T07:39:33.979Z,65.72
2018-08-13T07:40:38.110Z,65.32
2018-08-13T07:41:42.266Z,65.39
2018-08-13T07:42:46.900Z,65.25
2018-08-13T07:43:51.042Z,65.18
2018-08-13T07:44:55.474Z,65.36
2018-08-13T07:45:59.626Z,65.55
2018-08-13T07:47:03.802Z,66.17
2018-08-13T07:48:08.018Z,65.81
2018-08-13T07:49:12.158Z,66.28
2018-08-13T07:50:16.705Z,66.00
2018-08-13T07:51:20.988Z,66.37
2018-08-13T07:52:25.157Z,66.78
2018-08-13T07:53:29.363Z,66.81
2018-08-13T07:54:33.974Z,66.28
2018-08-13T07:55:38.158Z,66.34
2018-08-13T07:56:42.316Z,66.89
2018-08-13T07:57:46.474Z,66.37
2018-08-13T07:58:50.694Z,66.03
2018-08-13T07:59:54.917Z,65.93
2018-08-13T08:00:59.162Z,65.67
2018-08-13T08:02:03.411Z,66.36
2018-08-13T08:03:07.598Z,65.70
2018-08-13T08:04:11.822Z,65.43
2018-08-13T08:05:16.506Z,65.54
2018-08-13T08:06:20.646Z,65.38
2018-08-13T08:07:24.847Z,64.61
2018-08-13T08:08:29.064Z,64.27
2018-08-13T08:09:33.360Z,64.24
2018-08-13T08:10:37.668Z,64.61
2018-08-13T08:11:42.050Z,64.42
2018-08-13T08:12:46.246Z,64.40
2018-08-13T08:13:50.868Z,64.42
2018-08-13T08:14:55.026Z,64.29
2018-08-13T08:15:59.221Z,64.27
2018-08-13T08:17:03.437Z,63.54
2018-08-13T08:18:08.094Z,63.87
2018-08-13T08:19:12.234Z,63.32
2018-08-13T08:20:16.506Z,63.98
2018-08-13T08:21:20.732Z,64.04
2018-08-13T08:22:24.808Z,63.93
2018-08-13T08:23:28.962Z,64.03
2018-08-13T08:24:33.110Z,63.71
2018-08-13T08:25:37.296Z,63.23
2018-08-13T08:26:41.434Z,64.16
2018-08-13T08:27:45.837Z,64.34
2018-08-13T08:28:50.033Z,64.08
2018-08-13T08:29:54.459Z,64.27
2018-08-13T08:30:58.672Z,63.81
2018-08-13T08:32:02.919Z,64.21
2018-08-13T08:33:07.410Z,64.34
2018-08-13T08:34:12.202Z,64.14
2018-08-13T08:35:17.458Z,64.22
2018-08-13T08:36:21.671Z,64.35
2018-08-13T08:37:25.874Z,63.92
2018-08-13T08:38:30.063Z,64.89
2018-08-13T08:39:34.423Z,64.35
2018-08-13T08:40:38.709Z,65.28
2018-08-13T08:41:43.404Z,64.76
2018-08-13T08:42:48.088Z,64.79
2018-08-13T08:43:52.276Z,65.58
2018-08-13T08:44:56.459Z,65.62
2018-08-13T08:46:00.849Z,65.95
2018-08-13T08:47:05.058Z,65.78
2018-08-13T08:48:09.794Z,65.64
2018-08-13T08:49:13.994Z,65.78
2018-08-13T08:50:18.186Z,65.37
2018-08-13T08:51:22.583Z,65.21
2018-08-13T08:52:26.790Z,65.39
2018-08-13T08:53:30.997Z,65.87
2018-08-13T08:54:35.134Z,65.90
2018-08-13T08:55:39.290Z,65.23
2018-08-13T08:56:43.522Z,65.66
2018-08-13T08:57:48.835Z,64.97
2018-08-13T08:58:53.144Z,65.17
2018-08-13T08:59:57.289Z,65.63
2018-08-13T09:01:01.459Z,64.60
2018-08-13T09:02:05.626Z,65.28
2018-08-13T09:03:09.820Z,64.83
2018-08-13T09:04:14.113Z,64.52
2018-08-13T09:05:18.264Z,64.58
2018-08-13T09:06:22.478Z,65.11
2018-08-13T09:07:26.822Z,65.18
2018-08-13T09:08:31.038Z,64.69
2018-08-13T09:09:35.203Z,64.97
2018-08-13T09:10:39.346Z,65.02
2018-08-13T09:11:43.507Z,64.68
2018-08-13T09:12:47.709Z,65.41
2018-08-13T09:13:51.859Z,65.08
2018-08-13T09:14:56.032Z,65.38
2018-08-13T09:16:00.181Z,65.86
2018-08-13T09:17:04.382Z,65.74
2018-08-13T09:18:20.055Z,66.36
2018-08-13T09:19:35.400Z,66.67
2018-08-13T09:20:50.760Z,66.87
2018-08-13T09:24:09.081Z,66.67
2018-08-13T09:25:24.682Z,65.97
2018-08-13T09:26:40.275Z,66.78
2018-08-13T09:27:55.765Z,67.15
2018-08-13T09:29:11.245Z,67.16
2018-08-13T09:30:26.922Z,66.56
2018-08-13T09:31:56.233Z,67.15
2018-08-13T09:33:12.009Z,66.93
2018-08-13T09:34:27.374Z,66.75
2018-08-13T09:35:34.230Z,67.06
2018-08-13T09:36:38.612Z,67.52
2018-08-13T09:37:42.803Z,67.13
2018-08-13T09:38:47.063Z,66.82
2018-08-13T09:39:51.260Z,67.46
2018-08-13T09:40:55.378Z,66.96
2018-08-13T09:41:59.575Z,66.51
2018-08-13T09:43:03.718Z,66.83
2018-08-13T09:44:07.883Z,66.75
2018-08-13T09:45:12.032Z,66.64
2018-08-13T09:46:16.212Z,66.52
2018-08-13T09:47:20.487Z,66.54
2018-08-13T09:48:24.704Z,66.25
2018-08-13T09:49:28.986Z,66.00
2018-08-13T09:50:33.155Z,66.46
2018-08-13T09:51:37.326Z,66.11
2018-08-13T09:52:42.035Z,65.75
2018-08-13T09:53:46.194Z,65.66
2018-08-13T09:54:53.394Z,66.07
2018-08-13T09:55:57.534Z,66.27
2018-08-13T09:57:01.699Z,66.38
2018-08-13T09:58:06.611Z,66.00
2018-08-13T09:59:11.006Z,66.50
2018-08-13T10:00:22.453Z,65.76
2018-08-13T10:01:26.623Z,66.16
2018-08-13T10:02:30.839Z,65.92
2018-08-13T10:03:35.037Z,66.47
2018-08-13T10:04:39.226Z,66.65
2018-08-13T10:05:43.385Z,66.60
2018-08-13T10:06:47.551Z,66.59
2018-08-13T10:07:51.719Z,66.84
2018-08-13T10:08:55.878Z,66.49
2018-08-13T10:10:00.074Z,66.74
2018-08-13T10:11:04.277Z,66.63
2018-08-13T10:12:08.409Z,66.08
2018-08-13T10:13:12.595Z,66.00
2018-08-13T10:14:16.827Z,65.87
2018-08-13T10:15:20.997Z,65.80
2018-08-13T10:16:25.151Z,65.75
2018-08-13T10:17:29.363Z,66.27
2018-08-13T10:18:34.018Z,66.15
2018-08-13T10:19:38.178Z,65.93
2018-08-13T10:20:42.429Z,66.23
2018-08-13T10:21:46.690Z,66.46
2018-08-13T10:22:50.866Z,66.32
2018-08-13T10:23:55.063Z,66.34
2018-08-13T10:24:59.249Z,65.82
2018-08-13T10:26:03.409Z,66.03
2018-08-13T10:27:07.649Z,65.65
2018-08-13T10:28:11.766Z,65.91
2018-08-13T10:29:15.967Z,65.58
2018-08-13T10:30:20.138Z,65.08
2018-08-13T10:31:24.287Z,65.18
2018-08-13T10:32:28.531Z,65.21
2018-08-13T10:33:32.726Z,65.18
2018-08-13T10:34:37.200Z,65.02
2018-08-13T10:35:41.543Z,65.15
2018-08-13T10:36:45.694Z,64.03
2018-08-13T10:37:49.842Z,63.87
2018-08-13T10:38:54.225Z,64.24
2018-08-13T10:39:58.406Z,63.76
2018-08-13T10:41:02.587Z,63.92
2018-08-13T10:42:07.000Z,63.12
2018-08-13T10:43:11.154Z,63.12
2018-08-13T10:44:15.302Z,62.90
2018-08-13T10:45:19.660Z,62.96
2018-08-13T10:46:23.864Z,62.15
2018-08-13T10:47:27.992Z,62.11
2018-08-13T10:48:32.173Z,62.66
2018-08-13T10:49:36.305Z,62.11
2018-08-13T10:50:40.480Z,62.50
2018-08-13T10:51:44.686Z,61.46
2018-08-13T10:52:48.831Z,61.14
2018-08-13T10:53:53.198Z,61.37
2018-08-13T10:54:57.305Z,61.57
2018-08-13T10:56:01.667Z,60.98
2018-08-13T10:57:05.943Z,61.23
2018-08-13T10:58:10.121Z,60.99
2018-08-13T10:59:14.451Z,60.31
2018-08-13T11:00:18.740Z,60.46
2018-08-13T11:01:23.155Z,60.18
2018-08-13T11:02:27.320Z,59.49
2018-08-13T11:03:31.488Z,59.68
2018-08-13T11:04:35.642Z,59.60
2018-08-13T11:05:39.834Z,59.69
2018-08-13T11:06:44.010Z,59.72
2018-08-13T11:07:48.378Z,59.11
2018-08-13T11:08:52.687Z,59.60
2018-08-13T11:09:57.010Z,58.90
2018-08-13T11:11:01.230Z,58.83
2018-08-13T11:12:05.527Z,58.89
2018-08-13T11:13:09.714Z,59.25
2018-08-13T11:14:13.921Z,58.73
2018-08-13T11:15:19.512Z,58.41
2018-08-13T11:16:23.794Z,58.67
2018-08-13T11:17:28.005Z,58.95
2018-08-13T11:18:33.268Z,58.40
2018-08-13T11:19:37.654Z,58.32
2018-08-13T11:20:41.970Z,58.81
2018-08-13T11:21:46.151Z,58.80
2018-08-13T11:22:50.450Z,58.57
2018-08-13T11:23:54.636Z,58.40
2018-08-13T11:24:58.790Z,58.41
2018-08-13T11:26:02.935Z,58.06
2018-08-13T11:27:12.035Z,58.34
2018-08-13T11:28:16.469Z,58.24
2018-08-13T11:29:20.642Z,57.91
2018-08-13T11:30:24.876Z,58.23
2018-08-13T11:31:29.006Z,57.96
2018-08-13T11:32:33.267Z,57.98
2018-08-13T11:33:37.443Z,58.09
2018-08-13T11:34:42.433Z,58.79
2018-08-13T11:35:46.535Z,57.87
2018-08-13T11:36:50.695Z,58.88
2018-08-13T11:37:54.914Z,58.48
2018-08-13T11:38:59.122Z,58.33
2018-08-13T11:40:03.690Z,58.76
2018-08-13T11:41:08.022Z,58.13
2018-08-13T11:42:12.181Z,58.51
2018-08-13T11:43:16.372Z,58.89
2018-08-13T11:44:20.514Z,58.88
2018-08-13T11:45:24.669Z,58.66
2018-08-13T11:46:28.899Z,58.64
2018-08-13T11:47:33.142Z,58.41
2018-08-13T11:48:37.321Z,58.63
2018-08-13T11:49:41.781Z,58.06
2018-08-13T11:50:45.912Z,58.74
2018-08-13T11:51:50.074Z,57.98
2018-08-13T11:52:54.280Z,58.00
2018-08-13T11:53:58.469Z,59.05
2018-08-13T11:55:02.634Z,58.72
2018-08-13T11:56:07.030Z,59.48
2018-08-13T11:57:11.148Z,59.29
2018-08-13T11:58:15.265Z,60.05
2018-08-13T11:59:19.566Z,59.81
2018-08-13T12:00:23.914Z,60.38
2018-08-13T12:01:28.078Z,60.83
2018-08-13T12:02:32.234Z,61.26
2018-08-13T12:03:36.389Z,61.88
2018-08-13T12:04:40.569Z,62.85
2018-08-13T12:05:44.773Z,63.36
2018-08-13T12:06:48.960Z,63.85
2018-08-13T12:07:53.159Z,64.92
2018-08-13T12:08:57.304Z,65.21
2018-08-13T12:10:01.471Z,65.46
2018-08-13T12:11:05.854Z,66.59
2018-08-13T12:12:09.982Z,66.37
2018-08-13T12:13:14.142Z,67.28
2018-08-13T12:14:18.283Z,68.09
2018-08-13T12:15:22.476Z,68.12
2018-08-13T12:16:26.650Z,68.77
2018-08-13T12:17:30.950Z,68.55
2018-08-13T12:18:35.279Z,68.99
2018-08-13T12:19:39.563Z,69.42
2018-08-13T12:20:43.791Z,69.55
2018-08-13T12:21:47.964Z,69.66
2018-08-13T12:22:52.110Z,70.40
2018-08-13T12:23:56.268Z,70.53
2018-08-13T12:25:00.426Z,71.20
2018-08-13T12:26:04.650Z,71.22
2018-08-13T12:27:08.827Z,71.09
2018-08-13T12:28:13.007Z,71.90
2018-08-13T12:29:17.186Z,71.71
2018-08-13T12:30:21.391Z,72.62
2018-08-13T12:31:25.633Z,72.08
2018-08-13T12:32:30.047Z,72.54
2018-08-13T12:33:34.224Z,72.65
2018-08-13T12:34:38.415Z,72.12
2018-08-13T12:35:42.619Z,72.21
2018-08-13T12:36:46.748Z,72.06
2018-08-13T12:37:51.473Z,72.03
2018-08-13T12:38:55.623Z,71.82
2018-08-13T12:39:59.949Z,72.14
2018-08-13T12:41:04.294Z,71.60
2018-08-13T12:42:09.811Z,71.43
2018-08-13T12:43:13.945Z,71.69
2018-08-13T12:44:18.067Z,71.31
2018-08-13T12:45:22.248Z,70.71
2018-08-13T12:46:26.503Z,70.62
2018-08-13T12:47:30.720Z,70.95
2018-08-13T12:48:34.882Z,71.19
2018-08-13T12:49:39.118Z,70.41
2018-08-13T12:50:43.275Z,70.21
2018-08-13T12:51:47.487Z,70.12
2018-08-13T12:52:52.522Z,69.74
2018-08-13T12:53:56.696Z,69.38
2018-08-13T12:55:01.007Z,69.61
2018-08-13T12:56:05.182Z,69.39
2018-08-13T12:57:09.404Z,69.09
2018-08-13T12:58:13.491Z,68.70
2018-08-13T12:59:17.834Z,68.57
2018-08-13T13:00:22.002Z,68.22
2018-08-13T13:01:28.023Z,67.94
2018-08-13T13:02:32.178Z,67.02
2018-08-13T13:03:36.311Z,67.06
2018-08-13T13:04:41.223Z,66.98
2018-08-13T13:05:45.589Z,67.08
2018-08-13T13:06:49.703Z,68.01
2018-08-13T13:07:54.002Z,68.12
2018-08-13T13:08:58.138Z,67.30
2018-08-13T13:10:02.300Z,67.41
2018-08-13T13:11:06.486Z,67.84
2018-08-13T13:12:10.953Z,67.37
2018-08-13T13:13:15.094Z,67.82
2018-08-13T13:14:19.267Z,67.69
2018-08-13T13:15:23.542Z,67.35
2018-08-13T13:16:27.740Z,67.14
2018-08-13T13:17:31.902Z,67.27
2018-08-13T13:18:36.258Z,67.68
2018-08-13T13:19:40.562Z,67.26
2018-08-13T13:20:44.764Z,67.27
2018-08-13T13:21:48.899Z,66.85
2018-08-13T13:22:53.054Z,67.12
2018-08-13T13:23:57.230Z,66.44
2018-08-13T13:25:01.402Z,67.11
2018-08-13T13:26:05.632Z,66.40
2018-08-13T13:27:09.803Z,66.18
2018-08-13T13:28:13.955Z,65.45
2018-08-13T13:29:18.304Z,65.23
2018-08-13T13:30:22.486Z,65.09
2018-08-13T13:31:26.766Z,64.33
2018-08-13T13:32:31.098Z,64.81
2018-08-13T13:33:35.258Z,64.80
2018-08-13T13:34:39.560Z,64.65
2018-08-13T13:35:43.650Z,63.97
2018-08-13T13:36:47.822Z,64.88
2018-08-13T13:37:52.188Z,63.96
2018-08-13T13:38:56.359Z,64.41
2018-08-13T13:40:00.529Z,63.65
2018-08-13T13:41:04.691Z,63.87
2018-08-13T13:42:08.965Z,63.92
2018-08-13T13:43:13.245Z,63.46
2018-08-13T13:44:17.439Z,63.40
2018-08-13T13:45:21.662Z,63.18
2018-08-13T13:46:25.962Z,62.92
2018-08-13T13:47:30.127Z,62.98
2018-08-13T13:48:34.303Z,63.67
2018-08-13T13:49:38.494Z,63.10
2018-08-13T13:50:42.623Z,63.46
2018-08-13T13:51:46.943Z,63.46
2018-08-13T13:52:51.269Z,63.42
2018-08-13T13:53:55.432Z,63.94